sensor_id;sensor_type;location;lat;lon;timestamp;pressure;altitude;pressure_sealevel;temperature;humidity
41515;BME280;27247;48.020;16.720;2022-10-14T00:01:18;100176.41;;;9.09;100.00
41515;BME280;27247;48.020;16.720;2022-10-14T00:05:28;100164.59;;;8.86;100.00
41515;BME280;27247;48.020;16.720;2022-10-14T00:09:39;100165.75;;;8.83;100.00
41515;BME280;27247;48.020;16.720;2022-10-14T00:13:56;100168.41;;;8.83;100.00
41515;BME280;27247;48.020;16.720;2022-10-14T00:18:07;100163.38;;;8.80;100.00
41515;BME280;27247;48.020;16.720;2022-10-14T00:22:18;100161.19;;;8.76;100.00
41515;BME280;27247;48.020;16.720;2022-10-14T00:26:34;100161.56;;;8.81;100.00
41515;BME280;27247;48.020;16.720;2022-10-14T00:30:59;100157.91;;;8.82;100.00
41515;BME280;27247;48.020;16.720;2022-10-14T00:35:09;100158.06;;;8.80;100.00
41515;BME280;27247;48.020;16.720;2022-10-14T00:39:20;100159.41;;;8.84;100.00
41515;BME280;27247;48.020;16.720;2022-10-14T00:43:56;100150.78;;;8.90;100.00
41515;BME280;27247;48.020;16.720;2022-10-14T00:48:08;100148.28;;;8.89;100.00
41515;BME280;27247;48.020;16.720;2022-10-14T00:52:21;100146.50;;;8.72;100.00
41515;BME280;27247;48.020;16.720;2022-10-14T00:56:33;100133.41;;;8.78;100.00
41515;BME280;27247;48.020;16.720;2022-10-14T01:00:44;100130.72;;;8.78;100.00
41515;BME280;27247;48.020;16.720;2022-10-14T01:04:54;100134.59;;;8.58;100.00
41515;BME280;27247;48.020;16.720;2022-10-14T01:09:27;100133.69;;;8.49;100.00
41515;BME280;27247;48.020;16.720;2022-10-14T01:13:49;100132.44;;;8.61;100.00
41515;BME280;27247;48.020;16.720;2022-10-14T01:22:38;100138.19;;;8.49;100.00
41515;BME280;27247;48.020;16.720;2022-10-14T01:31:22;100124.50;;;8.44;100.00
41515;BME280;27247;48.020;16.720;2022-10-14T01:40:07;100130.28;;;8.39;100.00
41515;BME280;27247;48.020;16.720;2022-10-14T01:44:20;100136.97;;;8.43;100.00
41515;BME280;27247;48.020;16.720;2022-10-14T01:48:34;100132.50;;;8.44;100.00
41515;BME280;27247;48.020;16.720;2022-10-14T01:52:51;100138.28;;;8.39;100.00
41515;BME280;27247;48.020;16.720;2022-10-14T01:57:07;100124.97;;;8.29;100.00
41515;BME280;27247;48.020;16.720;2022-10-14T02:01:19;100121.78;;;8.26;100.00
41515;BME280;27247;48.020;16.720;2022-10-14T02:05:40;100125.81;;;8.30;100.00
41515;BME280;27247;48.020;16.720;2022-10-14T02:09:55;100120.06;;;8.17;100.00
41515;BME280;27247;48.020;16.720;2022-10-14T02:14:27;100122.25;;;8.04;100.00
41515;BME280;27247;48.020;16.720;2022-10-14T02:19:01;100117.84;;;8.12;100.00
41515;BME280;27247;48.020;16.720;2022-10-14T02:23:23;100127.97;;;8.09;100.00
41515;BME280;27247;48.020;16.720;2022-10-14T02:27:36;100128.88;;;8.17;100.00
41515;BME280;27247;48.020;16.720;2022-10-14T02:31:48;100126.06;;;8.19;100.00
41515;BME280;27247;48.020;16.720;2022-10-14T02:36:01;100112.97;;;8.25;100.00
41515;BME280;27247;48.020;16.720;2022-10-14T02:40:15;100114.06;;;8.32;100.00
41515;BME280;27247;48.020;16.720;2022-10-14T02:44:27;100108.47;;;8.26;100.00
41515;BME280;27247;48.020;16.720;2022-10-14T02:48:37;100115.41;;;8.19;100.00
41515;BME280;27247;48.020;16.720;2022-10-14T02:52:47;100122.25;;;8.21;100.00
41515;BME280;27247;48.020;16.720;2022-10-14T02:56:58;100116.84;;;8.31;100.00
41515;BME280;27247;48.020;16.720;2022-10-14T03:01:08;100122.56;;;8.18;100.00
41515;BME280;27247;48.020;16.720;2022-10-14T03:05:18;100113.28;;;8.22;100.00
41515;BME280;27247;48.020;16.720;2022-10-14T03:09:29;100109.63;;;8.23;100.00
41515;BME280;27247;48.020;16.720;2022-10-14T03:13:39;100102.72;;;8.13;100.00
41515;BME280;27247;48.020;16.720;2022-10-14T03:17:49;100102.94;;;8.19;100.00
41515;BME280;27247;48.020;16.720;2022-10-14T03:22:00;100093.38;;;7.91;100.00
41515;BME280;27247;48.020;16.720;2022-10-14T03:26:10;100104.31;;;7.88;100.00
41515;BME280;27247;48.020;16.720;2022-10-14T03:30:20;100109.50;;;7.89;100.00
41515;BME280;27247;48.020;16.720;2022-10-14T03:34:31;100099.69;;;7.90;100.00
41515;BME280;27247;48.020;16.720;2022-10-14T03:38:41;100113.91;;;7.98;100.00
41515;BME280;27247;48.020;16.720;2022-10-14T03:42:51;100116.41;;;8.00;100.00
41515;BME280;27247;48.020;16.720;2022-10-14T03:47:02;100133.66;;;8.14;100.00
41515;BME280;27247;48.020;16.720;2022-10-14T03:51:12;100134.88;;;8.19;100.00
41515;BME280;27247;48.020;16.720;2022-10-14T03:55:23;100125.66;;;8.31;100.00
41515;BME280;27247;48.020;16.720;2022-10-14T03:59:34;100131.44;;;8.37;100.00
41515;BME280;27247;48.020;16.720;2022-10-14T04:03:44;100133.09;;;8.38;100.00
41515;BME280;27247;48.020;16.720;2022-10-14T04:07:57;100128.94;;;8.35;100.00
41515;BME280;27247;48.020;16.720;2022-10-14T04:12:07;100112.63;;;8.38;100.00
41515;BME280;27247;48.020;16.720;2022-10-14T04:16:18;100118.84;;;8.11;100.00
41515;BME280;27247;48.020;16.720;2022-10-14T04:20:29;100111.38;;;8.15;100.00
41515;BME280;27247;48.020;16.720;2022-10-14T04:24:39;100118.91;;;7.84;100.00
41515;BME280;27247;48.020;16.720;2022-10-14T04:28:49;100132.00;;;7.95;100.00
41515;BME280;27247;48.020;16.720;2022-10-14T04:33:00;100137.84;;;7.98;100.00
41515;BME280;27247;48.020;16.720;2022-10-14T04:37:10;100150.78;;;7.93;100.00
41515;BME280;27247;48.020;16.720;2022-10-14T04:41:21;100139.97;;;8.13;100.00
41515;BME280;27247;48.020;16.720;2022-10-14T04:45:31;100124.53;;;8.16;100.00
41515;BME280;27247;48.020;16.720;2022-10-14T04:49:41;100113.97;;;8.07;100.00
41515;BME280;27247;48.020;16.720;2022-10-14T04:53:52;100106.38;;;8.12;100.00
41515;BME280;27247;48.020;16.720;2022-10-14T04:58:02;100115.78;;;8.24;100.00
41515;BME280;27247;48.020;16.720;2022-10-14T05:02:12;100128.00;;;8.44;100.00
41515;BME280;27247;48.020;16.720;2022-10-14T05:06:23;100121.75;;;8.53;100.00
41515;BME280;27247;48.020;16.720;2022-10-14T05:10:33;100127.59;;;8.57;100.00
41515;BME280;27247;48.020;16.720;2022-10-14T05:14:44;100144.94;;;8.61;100.00
41515;BME280;27247;48.020;16.720;2022-10-14T05:18:54;100147.28;;;8.64;100.00
41515;BME280;27247;48.020;16.720;2022-10-14T05:23:05;100136.94;;;8.61;100.00
41515;BME280;27247;48.020;16.720;2022-10-14T05:27:16;100139.34;;;8.72;100.00
41515;BME280;27247;48.020;16.720;2022-10-14T05:31:26;100134.06;;;8.80;100.00
41515;BME280;27247;48.020;16.720;2022-10-14T05:35:36;100137.72;;;8.79;100.00
41515;BME280;27247;48.020;16.720;2022-10-14T05:39:47;100139.41;;;8.80;100.00
41515;BME280;27247;48.020;16.720;2022-10-14T05:43:57;100147.25;;;8.82;100.00
41515;BME280;27247;48.020;16.720;2022-10-14T05:48:07;100136.47;;;8.91;100.00
41515;BME280;27247;48.020;16.720;2022-10-14T05:52:18;100147.19;;;9.00;100.00
41515;BME280;27247;48.020;16.720;2022-10-14T05:56:28;100161.59;;;9.15;100.00
41515;BME280;27247;48.020;16.720;2022-10-14T06:00:38;100166.25;;;9.13;100.00
41515;BME280;27247;48.020;16.720;2022-10-14T06:04:49;100180.78;;;9.18;100.00
41515;BME280;27247;48.020;16.720;2022-10-14T06:08:59;100178.16;;;9.26;100.00
41515;BME280;27247;48.020;16.720;2022-10-14T06:13:09;100180.88;;;9.35;100.00
41515;BME280;27247;48.020;16.720;2022-10-14T06:17:20;100190.94;;;9.41;100.00
41515;BME280;27247;48.020;16.720;2022-10-14T06:21:30;100192.28;;;9.45;100.00
41515;BME280;27247;48.020;16.720;2022-10-14T06:25:40;100190.28;;;9.47;100.00
41515;BME280;27247;48.020;16.720;2022-10-14T06:29:51;100194.66;;;9.56;100.00
41515;BME280;27247;48.020;16.720;2022-10-14T06:34:05;100194.47;;;9.49;100.00
41515;BME280;27247;48.020;16.720;2022-10-14T06:38:16;100189.31;;;9.56;100.00
41515;BME280;27247;48.020;16.720;2022-10-14T06:42:26;100197.88;;;9.68;100.00
41515;BME280;27247;48.020;16.720;2022-10-14T06:46:36;100208.22;;;9.71;100.00
41515;BME280;27247;48.020;16.720;2022-10-14T06:50:47;100202.94;;;9.79;100.00
41515;BME280;27247;48.020;16.720;2022-10-14T06:54:57;100206.44;;;9.79;100.00
41515;BME280;27247;48.020;16.720;2022-10-14T06:59:07;100213.78;;;9.85;100.00
41515;BME280;27247;48.020;16.720;2022-10-14T07:03:18;100211.81;;;9.96;100.00
41515;BME280;27247;48.020;16.720;2022-10-14T07:07:30;100208.66;;;10.00;100.00
41515;BME280;27247;48.020;16.720;2022-10-14T07:11:40;100208.19;;;10.05;100.00
41515;BME280;27247;48.020;16.720;2022-10-14T07:15:51;100216.03;;;10.06;100.00
41515;BME280;27247;48.020;16.720;2022-10-14T07:20:02;100217.03;;;10.05;100.00
41515;BME280;27247;48.020;16.720;2022-10-14T07:24:12;100214.69;;;10.02;100.00
41515;BME280;27247;48.020;16.720;2022-10-14T07:28:23;100222.22;;;10.15;100.00
41515;BME280;27247;48.020;16.720;2022-10-14T07:32:35;100214.75;;;10.27;100.00
41515;BME280;27247;48.020;16.720;2022-10-14T07:36:47;100217.66;;;10.41;100.00
41515;BME280;27247;48.020;16.720;2022-10-14T07:41:06;100213.50;;;10.63;100.00
41515;BME280;27247;48.020;16.720;2022-10-14T07:45:18;100208.97;;;10.88;100.00
41515;BME280;27247;48.020;16.720;2022-10-14T07:49:30;100212.78;;;11.18;100.00
41515;BME280;27247;48.020;16.720;2022-10-14T07:53:41;100210.41;;;11.31;100.00
41515;BME280;27247;48.020;16.720;2022-10-14T07:57:51;100207.66;;;11.64;100.00
41515;BME280;27247;48.020;16.720;2022-10-14T08:02:02;100217.97;;;11.83;100.00
41515;BME280;27247;48.020;16.720;2022-10-14T08:06:15;100206.75;;;11.88;100.00
41515;BME280;27247;48.020;16.720;2022-10-14T08:10:25;100208.28;;;12.13;100.00
41515;BME280;27247;48.020;16.720;2022-10-14T08:14:36;100201.03;;;12.44;100.00
41515;BME280;27247;48.020;16.720;2022-10-14T08:18:46;100201.88;;;12.68;100.00
41515;BME280;27247;48.020;16.720;2022-10-14T08:22:57;100189.75;;;12.95;100.00
41515;BME280;27247;48.020;16.720;2022-10-14T08:27:08;100190.69;;;13.02;100.00
41515;BME280;27247;48.020;16.720;2022-10-14T08:31:19;100183.78;;;13.22;100.00
41515;BME280;27247;48.020;16.720;2022-10-14T08:35:30;100188.25;;;13.45;100.00
41515;BME280;27247;48.020;16.720;2022-10-14T08:39:40;100190.00;;;13.52;100.00
41515;BME280;27247;48.020;16.720;2022-10-14T08:48:17;100185.19;;;13.77;100.00
41515;BME280;27247;48.020;16.720;2022-10-14T08:53:01;100189.34;;;13.80;100.00
41515;BME280;27247;48.020;16.720;2022-10-14T08:57:18;100191.78;;;13.74;100.00
41515;BME280;27247;48.020;16.720;2022-10-14T09:01:48;100176.56;;;13.82;100.00
41515;BME280;27247;48.020;16.720;2022-10-14T09:06:00;100183.50;;;13.91;100.00
41515;BME280;27247;48.020;16.720;2022-10-14T09:10:14;100181.25;;;14.30;100.00
41515;BME280;27247;48.020;16.720;2022-10-14T09:14:45;100188.22;;;14.61;100.00
41515;BME280;27247;48.020;16.720;2022-10-14T09:19:01;100189.13;;;14.96;100.00
41515;BME280;27247;48.020;16.720;2022-10-14T09:23:18;100189.53;;;15.21;100.00
41515;BME280;27247;48.020;16.720;2022-10-14T09:27:29;100188.69;;;15.55;100.00
41515;BME280;27247;48.020;16.720;2022-10-14T09:31:39;100195.50;;;15.79;99.77
41515;BME280;27247;48.020;16.720;2022-10-14T09:35:49;100190.81;;;16.01;94.91
41515;BME280;27247;48.020;16.720;2022-10-14T09:44:23;100190.31;;;16.58;92.77
41515;BME280;27247;48.020;16.720;2022-10-14T09:48:50;100191.22;;;16.85;90.12
41515;BME280;27247;48.020;16.720;2022-10-14T09:53:03;100195.75;;;16.65;92.17
41515;BME280;27247;48.020;16.720;2022-10-14T09:57:17;100182.50;;;17.09;92.04
41515;BME280;27247;48.020;16.720;2022-10-14T10:01:34;100188.53;;;17.05;86.96
41515;BME280;27247;48.020;16.720;2022-10-14T10:05:48;100178.53;;;17.25;87.21
41515;BME280;27247;48.020;16.720;2022-10-14T10:10:19;100181.59;;;17.42;85.52
41515;BME280;27247;48.020;16.720;2022-10-14T10:14:32;100179.88;;;17.61;84.84
41515;BME280;27247;48.020;16.720;2022-10-14T10:18:42;100186.19;;;17.35;85.09
41515;BME280;27247;48.020;16.720;2022-10-14T10:22:55;100179.72;;;17.42;86.01
41515;BME280;27247;48.020;16.720;2022-10-14T10:27:30;100184.72;;;17.45;84.64
41515;BME280;27247;48.020;16.720;2022-10-14T10:36:32;100172.72;;;17.21;86.78
41515;BME280;27247;48.020;16.720;2022-10-14T10:45:15;100154.22;;;17.18;85.62
41515;BME280;27247;48.020;16.720;2022-10-14T10:49:59;100145.72;;;17.15;84.60
41515;BME280;27247;48.020;16.720;2022-10-14T11:04:12;100132.38;;;17.33;84.48
41515;BME280;27247;48.020;16.720;2022-10-14T11:08:52;100108.94;;;17.20;82.90
41515;BME280;27247;48.020;16.720;2022-10-14T11:18:04;100103.09;;;17.30;82.66
41515;BME280;27247;48.020;16.720;2022-10-14T11:31:01;100092.69;;;18.48;78.90
41515;BME280;27247;48.020;16.720;2022-10-14T11:35:23;100094.66;;;18.59;77.68
41515;BME280;27247;48.020;16.720;2022-10-14T11:44:09;100081.72;;;18.68;76.74
41515;BME280;27247;48.020;16.720;2022-10-14T11:48:36;100079.53;;;18.51;75.59
41515;BME280;27247;48.020;16.720;2022-10-14T12:01:26;100067.81;;;18.58;74.73
41515;BME280;27247;48.020;16.720;2022-10-14T12:06:21;100071.75;;;18.37;76.12
41515;BME280;27247;48.020;16.720;2022-10-14T12:10:39;100060.72;;;18.38;76.99
41515;BME280;27247;48.020;16.720;2022-10-14T12:15:05;100059.31;;;18.04;76.59
41515;BME280;27247;48.020;16.720;2022-10-14T12:19:21;100053.69;;;18.06;75.96
41515;BME280;27247;48.020;16.720;2022-10-14T12:23:37;100051.97;;;18.11;76.29
41515;BME280;27247;48.020;16.720;2022-10-14T12:27:49;100045.41;;;18.01;75.43
41515;BME280;27247;48.020;16.720;2022-10-14T12:32:16;100037.28;;;18.01;75.21
41515;BME280;27247;48.020;16.720;2022-10-14T12:36:31;100039.16;;;17.69;77.78
41515;BME280;27247;48.020;16.720;2022-10-14T12:40:41;100035.63;;;17.55;78.66
41515;BME280;27247;48.020;16.720;2022-10-14T12:44:56;100031.72;;;17.51;77.87
41515;BME280;27247;48.020;16.720;2022-10-14T12:49:22;100024.00;;;17.54;77.41
41515;BME280;27247;48.020;16.720;2022-10-14T12:53:38;100019.00;;;17.58;78.35
41515;BME280;27247;48.020;16.720;2022-10-14T12:57:53;100007.56;;;17.56;76.62
41515;BME280;27247;48.020;16.720;2022-10-14T13:02:28;100017.94;;;17.72;76.25
41515;BME280;27247;48.020;16.720;2022-10-14T13:06:41;100011.63;;;18.10;74.82
41515;BME280;27247;48.020;16.720;2022-10-14T13:15:46;100010.22;;;17.63;74.65
41515;BME280;27247;48.020;16.720;2022-10-14T13:19:57;100006.06;;;17.67;73.59
41515;BME280;27247;48.020;16.720;2022-10-14T13:24:27;100011.06;;;17.70;75.69
41515;BME280;27247;48.020;16.720;2022-10-14T13:34:05;99998.31;;;17.83;74.64
41515;BME280;27247;48.020;16.720;2022-10-14T13:38:02;100003.16;;;17.68;75.67
41515;BME280;27247;48.020;16.720;2022-10-14T13:42:31;100010.25;;;17.69;74.81
41515;BME280;27247;48.020;16.720;2022-10-14T13:46:46;100013.78;;;17.70;75.28
41515;BME280;27247;48.020;16.720;2022-10-14T13:55:24;99999.72;;;17.48;75.83
41515;BME280;27247;48.020;16.720;2022-10-14T13:59:36;100000.25;;;17.25;75.50
41515;BME280;27247;48.020;16.720;2022-10-14T14:03:50;100000.50;;;17.17;76.04
41515;BME280;27247;48.020;16.720;2022-10-14T14:08:02;99988.31;;;17.01;75.65
41515;BME280;27247;48.020;16.720;2022-10-14T14:12:14;99997.25;;;16.95;76.27
41515;BME280;27247;48.020;16.720;2022-10-14T14:16:29;99987.94;;;16.91;77.42
41515;BME280;27247;48.020;16.720;2022-10-14T14:20:40;99988.13;;;16.89;78.04
41515;BME280;27247;48.020;16.720;2022-10-14T14:25:07;99988.38;;;16.81;77.88
41515;BME280;27247;48.020;16.720;2022-10-14T14:29:22;99982.97;;;16.81;78.90
41515;BME280;27247;48.020;16.720;2022-10-14T14:33:34;99982.34;;;16.79;78.99
41515;BME280;27247;48.020;16.720;2022-10-14T14:37:45;99976.78;;;16.74;79.09
41515;BME280;27247;48.020;16.720;2022-10-14T14:41:57;99980.09;;;16.70;79.86
41515;BME280;27247;48.020;16.720;2022-10-14T14:46:17;99984.47;;;16.71;80.58
41515;BME280;27247;48.020;16.720;2022-10-14T14:50:31;99979.88;;;16.65;81.21
41515;BME280;27247;48.020;16.720;2022-10-14T14:54:44;99973.63;;;16.64;81.42
41515;BME280;27247;48.020;16.720;2022-10-14T14:58:57;99974.31;;;16.66;81.70
41515;BME280;27247;48.020;16.720;2022-10-14T15:03:10;99974.47;;;16.65;81.96
41515;BME280;27247;48.020;16.720;2022-10-14T15:07:23;99979.03;;;16.57;82.40
41515;BME280;27247;48.020;16.720;2022-10-14T15:11:46;99966.59;;;16.50;82.52
41515;BME280;27247;48.020;16.720;2022-10-14T15:15:58;99972.63;;;16.45;82.79
41515;BME280;27247;48.020;16.720;2022-10-14T15:24:19;99966.84;;;16.35;84.54
41515;BME280;27247;48.020;16.720;2022-10-14T15:28:31;99970.78;;;16.33;84.55
41515;BME280;27247;48.020;16.720;2022-10-14T15:32:42;99958.97;;;16.27;84.95
41515;BME280;27247;48.020;16.720;2022-10-14T15:36:52;99950.44;;;16.30;84.91
41515;BME280;27247;48.020;16.720;2022-10-14T15:41:03;99953.38;;;16.15;85.80
41515;BME280;27247;48.020;16.720;2022-10-14T15:45:15;99952.34;;;16.10;85.98
41515;BME280;27247;48.020;16.720;2022-10-14T15:49:29;99955.88;;;16.04;85.92
41515;BME280;27247;48.020;16.720;2022-10-14T15:53:40;99955.03;;;16.03;86.09
41515;BME280;27247;48.020;16.720;2022-10-14T15:57:51;99958.16;;;15.93;86.33
41515;BME280;27247;48.020;16.720;2022-10-14T16:02:03;99962.50;;;15.75;86.83
41515;BME280;27247;48.020;16.720;2022-10-14T16:06:14;99945.50;;;15.68;87.74
41515;BME280;27247;48.020;16.720;2022-10-14T16:10:26;99949.84;;;15.62;88.17
41515;BME280;27247;48.020;16.720;2022-10-14T16:14:36;99948.13;;;15.54;87.90
41515;BME280;27247;48.020;16.720;2022-10-14T16:18:47;99959.69;;;15.42;88.14
41515;BME280;27247;48.020;16.720;2022-10-14T16:22:57;99953.06;;;15.38;87.96
41515;BME280;27247;48.020;16.720;2022-10-14T16:27:07;99953.66;;;15.26;88.22
41515;BME280;27247;48.020;16.720;2022-10-14T16:31:18;99969.19;;;15.24;88.42
41515;BME280;27247;48.020;16.720;2022-10-14T16:35:28;99959.66;;;15.22;88.81
41515;BME280;27247;48.020;16.720;2022-10-14T16:39:38;99967.13;;;15.26;88.89
41515;BME280;27247;48.020;16.720;2022-10-14T16:43:49;99962.72;;;15.12;89.65
41515;BME280;27247;48.020;16.720;2022-10-14T16:48:00;99966.84;;;15.08;90.13
41515;BME280;27247;48.020;16.720;2022-10-14T16:52:11;99967.03;;;15.00;91.13
41515;BME280;27247;48.020;16.720;2022-10-14T16:56:21;99971.56;;;14.93;91.61
41515;BME280;27247;48.020;16.720;2022-10-14T17:00:50;99970.13;;;14.97;91.71
41515;BME280;27247;48.020;16.720;2022-10-14T17:05:00;99972.56;;;14.85;92.47
41515;BME280;27247;48.020;16.720;2022-10-14T17:09:11;99973.66;;;14.97;91.62
41515;BME280;27247;48.020;16.720;2022-10-14T17:13:21;99970.69;;;14.86;92.51
41515;BME280;27247;48.020;16.720;2022-10-14T17:17:32;99959.13;;;14.92;92.74
41515;BME280;27247;48.020;16.720;2022-10-14T17:21:42;99959.53;;;14.89;92.94
41515;BME280;27247;48.020;16.720;2022-10-14T17:25:53;99954.13;;;14.82;93.11
41515;BME280;27247;48.020;16.720;2022-10-14T17:30:05;99950.38;;;14.77;93.78
41515;BME280;27247;48.020;16.720;2022-10-14T17:34:15;99953.03;;;14.70;94.02
41515;BME280;27247;48.020;16.720;2022-10-14T17:38:28;99948.00;;;14.60;94.32
41515;BME280;27247;48.020;16.720;2022-10-14T17:42:39;99953.41;;;14.60;94.28
41515;BME280;27247;48.020;16.720;2022-10-14T17:46:51;99950.59;;;14.47;95.48
41515;BME280;27247;48.020;16.720;2022-10-14T17:51:02;99961.13;;;14.42;96.12
41515;BME280;27247;48.020;16.720;2022-10-14T17:55:13;99957.75;;;14.40;95.88
41515;BME280;27247;48.020;16.720;2022-10-14T17:59:24;99966.66;;;14.41;96.04
41515;BME280;27247;48.020;16.720;2022-10-14T18:03:35;99959.19;;;14.36;96.91
41515;BME280;27247;48.020;16.720;2022-10-14T18:07:46;99963.81;;;14.42;95.88
41515;BME280;27247;48.020;16.720;2022-10-14T18:11:58;99953.72;;;14.23;96.02
41515;BME280;27247;48.020;16.720;2022-10-14T18:16:11;99963.19;;;14.19;97.49
41515;BME280;27247;48.020;16.720;2022-10-14T18:20:23;99961.59;;;14.24;97.22
41515;BME280;27247;48.020;16.720;2022-10-14T18:24:34;99958.41;;;14.14;97.42
41515;BME280;27247;48.020;16.720;2022-10-14T18:28:52;99958.56;;;14.06;98.04
41515;BME280;27247;48.020;16.720;2022-10-14T18:33:03;99953.53;;;13.96;98.98
41515;BME280;27247;48.020;16.720;2022-10-14T18:37:13;99956.56;;;13.87;99.79
41515;BME280;27247;48.020;16.720;2022-10-14T18:41:25;99960.16;;;13.72;99.78
41515;BME280;27247;48.020;16.720;2022-10-14T18:45:36;99965.69;;;13.50;99.06
41515;BME280;27247;48.020;16.720;2022-10-14T18:49:46;99967.72;;;13.26;97.67
41515;BME280;27247;48.020;16.720;2022-10-14T18:54:00;99961.44;;;13.19;98.29
41515;BME280;27247;48.020;16.720;2022-10-14T18:58:12;99952.63;;;13.10;98.96
41515;BME280;27247;48.020;16.720;2022-10-14T19:02:23;99951.81;;;13.10;99.96
41515;BME280;27247;48.020;16.720;2022-10-14T19:06:35;99952.47;;;12.97;100.00
41515;BME280;27247;48.020;16.720;2022-10-14T19:10:46;99959.91;;;12.81;100.00
41515;BME280;27247;48.020;16.720;2022-10-14T19:14:57;99965.72;;;12.84;100.00
41515;BME280;27247;48.020;16.720;2022-10-14T19:19:13;99974.16;;;12.81;100.00
41515;BME280;27247;48.020;16.720;2022-10-14T19:23:25;99972.00;;;12.91;100.00
41515;BME280;27247;48.020;16.720;2022-10-14T19:27:36;99973.03;;;12.75;100.00
41515;BME280;27247;48.020;16.720;2022-10-14T19:31:49;99971.13;;;12.69;100.00
41515;BME280;27247;48.020;16.720;2022-10-14T19:36:00;99965.28;;;12.81;100.00
41515;BME280;27247;48.020;16.720;2022-10-14T19:40:12;99965.56;;;12.71;100.00
41515;BME280;27247;48.020;16.720;2022-10-14T19:44:24;99960.59;;;12.53;100.00
41515;BME280;27247;48.020;16.720;2022-10-14T19:48:35;99960.75;;;12.52;100.00
41515;BME280;27247;48.020;16.720;2022-10-14T19:52:45;99956.41;;;12.51;100.00
41515;BME280;27247;48.020;16.720;2022-10-14T19:56:56;99954.19;;;12.54;100.00
41515;BME280;27247;48.020;16.720;2022-10-14T20:05:18;99966.03;;;12.60;100.00
41515;BME280;27247;48.020;16.720;2022-10-14T20:09:28;99956.88;;;12.54;100.00
41515;BME280;27247;48.020;16.720;2022-10-14T20:13:39;99956.75;;;12.18;100.00
41515;BME280;27247;48.020;16.720;2022-10-14T20:17:49;99946.75;;;11.97;100.00
41515;BME280;27247;48.020;16.720;2022-10-14T20:22:00;99952.91;;;11.83;100.00
41515;BME280;27247;48.020;16.720;2022-10-14T20:26:13;99958.09;;;11.76;100.00
41515;BME280;27247;48.020;16.720;2022-10-14T20:30:24;99948.59;;;11.74;100.00
41515;BME280;27247;48.020;16.720;2022-10-14T20:34:34;99941.56;;;11.73;100.00
41515;BME280;27247;48.020;16.720;2022-10-14T20:38:45;99937.78;;;11.67;100.00
41515;BME280;27247;48.020;16.720;2022-10-14T20:42:56;99935.53;;;11.56;100.00
41515;BME280;27247;48.020;16.720;2022-10-14T20:47:08;99937.78;;;11.67;100.00
41515;BME280;27247;48.020;16.720;2022-10-14T20:51:18;99932.00;;;11.78;100.00
41515;BME280;27247;48.020;16.720;2022-10-14T20:55:31;99915.31;;;11.91;100.00
41515;BME280;27247;48.020;16.720;2022-10-14T20:59:42;99924.84;;;11.94;100.00
41515;BME280;27247;48.020;16.720;2022-10-14T21:03:52;99917.38;;;12.04;100.00
41515;BME280;27247;48.020;16.720;2022-10-14T21:08:03;99926.53;;;12.09;100.00
41515;BME280;27247;48.020;16.720;2022-10-14T21:12:14;99929.94;;;12.03;100.00
41515;BME280;27247;48.020;16.720;2022-10-14T21:20:37;99913.41;;;12.00;100.00
41515;BME280;27247;48.020;16.720;2022-10-14T21:24:47;99921.97;;;11.95;100.00
41515;BME280;27247;48.020;16.720;2022-10-14T21:28:59;99916.34;;;11.90;100.00
41515;BME280;27247;48.020;16.720;2022-10-14T21:33:10;99909.59;;;11.79;100.00
41515;BME280;27247;48.020;16.720;2022-10-14T21:37:20;99907.19;;;11.85;100.00
41515;BME280;27247;48.020;16.720;2022-10-14T21:41:30;99902.31;;;11.88;100.00
41515;BME280;27247;48.020;16.720;2022-10-14T21:45:41;99898.25;;;11.92;100.00
41515;BME280;27247;48.020;16.720;2022-10-14T21:49:51;99891.22;;;11.91;100.00
41515;BME280;27247;48.020;16.720;2022-10-14T21:54:02;99890.41;;;11.91;100.00
41515;BME280;27247;48.020;16.720;2022-10-14T21:58:13;99878.31;;;11.95;100.00
41515;BME280;27247;48.020;16.720;2022-10-14T22:02:23;99872.75;;;11.96;100.00
41515;BME280;27247;48.020;16.720;2022-10-14T22:06:34;99864.34;;;11.85;100.00
41515;BME280;27247;48.020;16.720;2022-10-14T22:10:45;99867.56;;;11.80;100.00
41515;BME280;27247;48.020;16.720;2022-10-14T22:14:56;99847.41;;;11.69;100.00
41515;BME280;27247;48.020;16.720;2022-10-14T22:19:07;99845.19;;;11.58;100.00
41515;BME280;27247;48.020;16.720;2022-10-14T22:23:17;99843.41;;;11.50;100.00
41515;BME280;27247;48.020;16.720;2022-10-14T22:27:28;99832.28;;;11.39;100.00
41515;BME280;27247;48.020;16.720;2022-10-14T22:31:38;99830.03;;;11.28;100.00
41515;BME280;27247;48.020;16.720;2022-10-14T22:35:49;99821.59;;;11.16;100.00
41515;BME280;27247;48.020;16.720;2022-10-14T22:40:00;99828.63;;;11.17;100.00
41515;BME280;27247;48.020;16.720;2022-10-14T22:44:10;99824.56;;;11.21;100.00
41515;BME280;27247;48.020;16.720;2022-10-14T22:48:21;99818.22;;;11.22;100.00
41515;BME280;27247;48.020;16.720;2022-10-14T22:52:31;99830.03;;;11.28;100.00
41515;BME280;27247;48.020;16.720;2022-10-14T22:56:41;99830.31;;;11.33;100.00
41515;BME280;27247;48.020;16.720;2022-10-14T23:00:52;99826.53;;;11.27;100.00
41515;BME280;27247;48.020;16.720;2022-10-14T23:05:02;99813.03;;;11.20;100.00
41515;BME280;27247;48.020;16.720;2022-10-14T23:09:13;99816.84;;;11.26;100.00
41515;BME280;27247;48.020;16.720;2022-10-14T23:13:24;99819.34;;;11.28;100.00
41515;BME280;27247;48.020;16.720;2022-10-14T23:17:34;99826.16;;;11.30;100.00
41515;BME280;27247;48.020;16.720;2022-10-14T23:21:44;99829.50;;;11.32;100.00